CheckWX is a tool to help pilots better visualize weather data.  It is not intended as a substitute for an official pre-flight weather briefing.

13:00:00 UTC

VIDP METAR
Indira Gandhi International Airport
New Delhi, India
Current

30 mins ago

VIDP 191230Z 11006KT 3200 HZ SCT030 BKN100 30/22 Q1009 NOSIG
Observed
Sep-19 @ 12:30 UTC
Wind
  • 110° at 6 KTS
Visibility
3,200 meters
Flight Rules
IFR
Conditions
Haze
Cloud Levels
  • Scattered at 3,000' AGL
  • Broken at 10,000' AGL
Temperature
30°C / 86°F
Dewpoint
22°C / 72°F
Heat Index
33°C / 92°F
Humidity
62%
Altimeter
29.79" Hg
Pressure
1008.92 hPa
Previous

60 mins ago

VIDP 191200Z 11008KT 3200 HZ SCT030 BKN100 30/22 Q1009 NOSIG
Observed
Sep-19 @ 12:00 UTC
Wind
  • 110° at 8 KTS
Visibility
3,200 meters
Flight Rules
IFR
Conditions
Haze
Cloud Levels
  • Scattered at 3,000' AGL
  • Broken at 10,000' AGL
Temperature
30°C / 86°F
Dewpoint
22°C / 72°F
Heat Index
33°C / 92°F
Humidity
62%
Altimeter
29.79" Hg
Pressure
1008.92 hPa
Previous

2 hours ago

VIDP 191130Z 10007KT 3500 HZ SCT030 BKN100 31/22 Q1009 NOSIG
Observed
Sep-19 @ 11:30 UTC
Wind
  • 100° at 7 KTS
Visibility
3,500 meters
Flight Rules
IFR
Conditions
Haze
Cloud Levels
  • Scattered at 3,000' AGL
  • Broken at 10,000' AGL
Temperature
31°C / 88°F
Dewpoint
22°C / 72°F
Heat Index
35°C / 95°F
Humidity
59%
Altimeter
29.79" Hg
Pressure
1008.92 hPa